Lander, WY (82520)

11:11 AM MDT on April 24, 2017 (GMT -0600)
Lander Valley | | Change Station
Active Advisory: Special Statement

Elev 5358 ft 42.84 °N, 108.74 °W | Updated 1 minute ago

Mostly Cloudy
Mostly Cloudy
57.9 °F
Feels Like 57.9 °F
N
5.5
Wind Variable Wind from NW

Today
High -- | Low -- °F
--% Chance of Precip.
Yesterday
High -- | Low -- °F
Precip. -- in
Pressure 29.51 in
Visibility 10.0 miles
Clouds Mostly Cloudy 7500 ft
Dew Point 30 °F
Humidity 35%
Rainfall 0.00 in
Snow Depth Not available.
6:18 AM 8:07 PM
Waning Crescent, 5% visible
METAR KLND 241653Z AUTO 20011G23KT 10SM BKN075 13/M01 A2961 RMK AO2 WSHFT 1620 SLP991 T01331006
Pressure 29.51 in
Visibility 10.0 miles
Clouds Mostly Cloudy 7500 ft
Dew Point 30 °F
Humidity 35%
Rainfall 0.00 in
Snow Depth Not available.
6:18 AM 8:07 PM
Waning Crescent, 5% visible
METAR KLND 241653Z AUTO 20011G23KT 10SM BKN075 13/M01 A2961 RMK AO2 WSHFT 1620 SLP991 T01331006

Get Your Daily Forecast Email!

Thanks for signing up!

Be on the lookout for a verification email in your inbox.

You'll start receiving severe weather alerts in your inbox..

×

10-Day Weather Forecast

Almanac

Astronomy

Apr. 24, 2017 Rise Set
Actual Time
Civil Twilight
Nautical Twilight
Astronomical Twilight
Moon
Length of Visible Light
Length of Day
Tomorrow will be .
, % of the Moon is Illuminated

Today's Extremes

State Highs State Lows

Community

WunderPhotos

WunderBlog® & News

Nearby

Air Quality

  Air Quality AQ Index Pollutant
Not available.

Snow Depth

Station Depth Elevation

Earthquake Activity

City Distance Mag. Time & Date
Minimum magnitude displayed is 2.5.

Coastal Water Temperatures

Place Temperature

Stations

Nearby Weather Stations

Station Location Temp. Windchill Dew Point Humidity Wind Precip. Elev Updated Type
                   

Watches & Warnings

Special Statement
Issued: 11:02 AM MDT Apr. 24, 2017 – National Weather Service

... Burst of Spring snow expected late tonight through Tuesday
morning across portions of the Wind River basin and Lander
foothills...

Light rain will become mixed with snow after midnight tonight
... Then down to near basin floor level after 4 am. The light snow
or rain snow mix will continue at times through Tuesday morning.
Generally expect from a trace to 2 inches of total snowfall
accumulation by noon Tuesday. Highways 789 or 287 will become
slick or slushy at times. Visibility could be reduced to under one
mile at times in snow.